Time;durP1;ratioP1;P1;durP2;ratioP2;P2;SDS_P1;SDS_P2;PMS_P1;PMS_P2;Temp;Humidity;BMP_temperature;BMP_pressure;BME280_temperature;BME280_humidity;BME280_pressure;Samples;Min_cycle;Max_cycle;Signal;HPM_P1;HPM_P2
2024/01/01 00:01:17;;;;;;;23.65;14.38;;;7.30;99.90;;;;;;4833863;29;20137;-79
2024/01/01 00:03:43;;;;;;;25.92;17.05;;;7.30;99.90;;;;;;4831063;29;20088;-79
2024/01/01 00:06:09;;;;;;;29.00;18.77;;;7.50;99.90;;;;;;4823165;29;20069;-79
2024/01/01 00:08:35;;;;;;;28.83;19.25;;;7.30;99.90;;;;;;4834559;29;20046;-79
2024/01/01 00:11:00;;;;;;;31.35;19.45;;;7.40;99.90;;;;;;4828155;29;20041;-79
2024/01/01 00:13:26;;;;;;;33.92;22.17;;;7.40;99.90;;;;;;4832574;29;20157;-79
2024/01/01 00:15:52;;;;;;;34.45;22.60;;;7.40;99.90;;;;;;4830767;29;20428;-79
2024/01/01 00:18:17;;;;;;;37.40;23.70;;;7.50;99.90;;;;;;4831519;29;20046;-79
2024/01/01 00:20:43;;;;;;;37.08;23.95;;;7.50;99.90;;;;;;4829451;29;20042;-79
2024/01/01 00:23:09;;;;;;;39.63;24.10;;;7.50;99.90;;;;;;4826171;29;20107;-79
2024/01/01 00:25:36;;;;;;;35.92;24.33;;;7.50;99.90;;;;;;4827987;29;20458;-79
2024/01/01 00:28:04;;;;;;;37.33;23.20;;;7.60;99.90;;;;;;4834949;29;20090;-79
2024/01/01 00:30:29;;;;;;;37.00;22.90;;;7.60;99.90;;;;;;4826370;29;20054;-79
2024/01/01 00:32:55;;;;;;;35.33;22.88;;;7.60;99.90;;;;;;4830865;29;20034;-79
2024/01/01 00:35:21;;;;;;;39.17;21.42;;;7.70;99.90;;;;;;4829223;29;20102;-79
2024/01/01 00:37:46;;;;;;;36.75;21.95;;;8.10;99.90;;;;;;4830266;29;20054;-79
2024/01/01 00:40:12;;;;;;;32.60;22.75;;;7.60;99.90;;;;;;4834208;29;20049;-79
2024/01/01 00:42:38;;;;;;;38.35;23.92;;;7.60;99.90;;;;;;4830517;29;20082;-79
2024/01/01 00:45:04;;;;;;;32.70;23.05;;;7.60;99.90;;;;;;4822841;29;20066;-79
2024/01/01 00:47:30;;;;;;;31.45;21.40;;;7.70;99.90;;;;;;4828987;29;20054;-79
2024/01/01 00:49:57;;;;;;;34.72;23.17;;;7.70;99.90;;;;;;4829955;29;20059;-79
2024/01/01 00:52:23;;;;;;;35.35;22.52;;;7.70;99.90;;;;;;4834097;29;20129;-79
2024/01/01 00:54:49;;;;;;;32.53;20.55;;;7.70;99.90;;;;;;4831066;29;20125;-79
2024/01/01 00:57:14;;;;;;;33.33;20.38;;;7.80;99.90;;;;;;4829660;29;20042;-79
2024/01/01 00:59:40;;;;;;;31.80;19.00;;;7.80;99.90;;;;;;4827050;29;20065;-79
2024/01/01 01:02:05;;;;;;;31.17;18.83;;;7.80;99.90;;;;;;4826895;29;20046;-79
2024/01/01 01:04:31;;;;;;;29.17;18.50;;;7.80;99.90;;;;;;4828451;29;20425;-80
2024/01/01 01:06:56;;;;;;;28.75;18.17;;;7.80;99.90;;;;;;4832009;29;20050;-79
2024/01/01 01:09:22;;;;;;;24.75;17.25;;;7.80;99.90;;;;;;4828729;29;20046;-79
2024/01/01 01:11:48;;;;;;;27.67;16.80;;;7.80;99.90;;;;;;4834333;29;20083;-79
2024/01/01 01:14:13;;;;;;;26.67;16.27;;;7.80;99.90;;;;;;4831448;29;20093;-79
2024/01/01 01:16:39;;;;;;;25.38;15.15;;;7.90;99.90;;;;;;4828603;29;20115;-78
2024/01/01 01:19:05;;;;;;;25.65;15.43;;;7.90;99.90;;;;;;4830954;29;20042;-77
2024/01/01 01:21:30;;;;;;;21.95;13.93;;;7.90;99.90;;;;;;4843700;29;20053;-78
2024/01/01 01:23:58;;;;;;;25.05;15.40;;;7.80;99.90;;;;;;4823093;29;20058;-78
2024/01/01 01:26:23;;;;;;;21.50;14.80;;;7.90;99.90;;;;;;4832546;29;20062;-78
2024/01/01 01:28:49;;;;;;;23.52;15.18;;;7.80;99.90;;;;;;4833740;29;20404;-78
2024/01/01 01:31:15;;;;;;;28.10;16.35;;;7.80;99.90;;;;;;4827139;29;20119;-78
2024/01/01 01:33:40;;;;;;;32.53;20.15;;;7.80;99.90;;;;;;4850546;29;20050;-77
2024/01/01 01:36:06;;;;;;;31.13;20.05;;;7.80;99.90;;;;;;4826931;29;20081;-78
2024/01/01 01:38:35;;;;;;;38.20;21.73;;;7.90;99.90;;;;;;4834550;29;20056;-78
2024/01/01 01:41:01;;;;;;;36.95;23.77;;;7.80;99.90;;;;;;4834452;29;20454;-78
2024/01/01 01:43:27;;;;;;;41.53;25.83;;;;;;;;;;4827267;29;20069;-77
2024/01/01 01:45:54;;;;;;;40.15;24.42;;;7.90;99.90;;;;;;4836663;29;20500;-79
2024/01/01 01:48:21;;;;;;;36.80;23.90;;;7.90;99.90;;;;;;4827909;29;20058;-79
2024/01/01 01:50:48;;;;;;;44.80;26.05;;;7.80;99.90;;;;;;4812336;29;20054;-79
2024/01/01 01:53:14;;;;;;;38.35;24.13;;;8.70;99.90;;;;;;4829706;29;20050;-79
2024/01/01 01:55:45;;;;;;;39.58;25.48;;;7.80;99.90;;;;;;4833530;29;20051;-78
2024/01/01 01:58:11;;;;;;;47.20;29.35;;;8.60;99.90;;;;;;4827957;29;20509;-78
2024/01/01 02:00:38;;;;;;;41.88;28.70;;;7.80;99.90;;;;;;4828979;29;20045;-78
2024/01/01 02:03:06;;;;;;;39.50;25.50;;;7.80;99.90;;;;;;4826725;29;20054;-80
2024/01/01 02:05:32;;;;;;;40.15;26.65;;;7.90;99.90;;;;;;4830867;29;20894;-79
2024/01/01 02:07:59;;;;;;;42.47;27.38;;;7.90;99.90;;;;;;4833391;29;20561;-79
2024/01/01 02:10:25;;;;;;;35.67;24.70;;;7.80;99.90;;;;;;4836526;29;20110;-79
2024/01/01 02:12:50;;;;;;;33.72;22.08;;;7.90;99.90;;;;;;4832420;29;20057;-79
2024/01/01 02:15:16;;;;;;;27.83;20.25;;;7.90;99.90;;;;;;4827858;29;20053;-79
2024/01/01 02:17:42;;;;;;;32.63;21.85;;;7.90;99.90;;;;;;4834202;29;20223;-78
2024/01/01 02:20:08;;;;;;;31.00;19.70;;;7.90;99.90;;;;;;4824625;29;20393;-79
2024/01/01 02:22:37;;;;;;;29.35;19.25;;;7.90;99.90;;;;;;4824494;29;20152;-78
2024/01/01 02:25:04;;;;;;;25.08;17.63;;;7.90;99.90;;;;;;4828424;29;20533;-78
2024/01/01 02:27:30;;;;;;;26.98;18.85;;;7.90;99.90;;;;;;4833562;29;20076;-78
2024/01/01 02:29:55;;;;;;;27.05;18.40;;;7.80;99.90;;;;;;4826798;29;20393;-78
2024/01/01 02:32:21;;;;;;;31.20;18.17;;;7.80;99.90;;;;;;4824930;29;20135;-79
2024/01/01 02:34:50;;;;;;;26.42;16.45;;;7.80;99.90;;;;;;4825570;29;20066;-79
2024/01/01 02:37:15;;;;;;;20.85;13.98;;;7.70;99.90;;;;;;4826397;29;21703;-78
2024/01/01 02:39:41;;;;;;;25.48;13.85;;;7.70;99.90;;;;;;4840049;29;20053;-78
2024/01/01 02:42:07;;;;;;;19.45;12.32;;;7.70;99.90;;;;;;4830846;29;20519;-79
2024/01/01 02:44:32;;;;;;;16.88;11.05;;;7.60;99.90;;;;;;4836022;29;20861;-79
2024/01/01 02:46:58;;;;;;;15.75;11.07;;;7.60;99.90;;;;;;4830362;29;20110;-79
2024/01/01 02:49:23;;;;;;;19.75;10.80;;;7.50;99.90;;;;;;4828292;29;20085;-79
2024/01/01 02:51:49;;;;;;;16.70;10.00;;;7.50;99.90;;;;;;4811820;29;20079;-79
2024/01/01 02:54:15;;;;;;;15.35;9.23;;;7.40;99.90;;;;;;4828525;29;20054;-78
2024/01/01 02:56:41;;;;;;;16.08;9.02;;;7.30;99.90;;;;;;4825457;29;20049;-78
2024/01/01 02:59:07;;;;;;;17.55;8.88;;;7.30;99.90;;;;;;4830152;29;20038;-80
2024/01/01 03:01:32;;;;;;;15.73;8.10;;;7.20;99.90;;;;;;4832694;29;20069;-78
2024/01/01 03:03:58;;;;;;;10.82;6.85;;;7.20;99.90;;;;;;4825435;29;20049;-78
2024/01/01 03:06:23;;;;;;;12.13;6.65;;;7.20;99.90;;;;;;4834915;29;20569;-78
2024/01/01 03:08:49;;;;;;;10.15;5.85;;;7.20;99.90;;;;;;4831841;29;21112;-78
2024/01/01 03:11:15;;;;;;;8.90;5.03;;;7.10;99.90;;;;;;4846817;29;20058;-79
2024/01/01 03:13:40;;;;;;;7.82;4.18;;;7.20;99.90;;;;;;4831575;29;20046;-79
2024/01/01 03:16:07;;;;;;;11.48;5.22;;;7.20;99.90;;;;;;4834653;29;20187;-79
2024/01/01 03:18:32;;;;;;;8.10;5.13;;;7.20;99.90;;;;;;4833657;29;20140;-78
2024/01/01 03:20:58;;;;;;;7.15;4.00;;;7.20;99.90;;;;;;4836250;29;20042;-78
2024/01/01 03:23:23;;;;;;;8.85;4.15;;;7.10;99.90;;;;;;4830480;29;20069;-79
2024/01/01 03:25:49;;;;;;;6.10;3.63;;;7.00;99.90;;;;;;4828702;29;20174;-78
2024/01/01 03:28:15;;;;;;;6.88;3.85;;;7.00;99.90;;;;;;4828710;29;20042;-79
2024/01/01 03:30:40;;;;;;;7.25;3.95;;;7.00;99.90;;;;;;4834219;29;20057;-79
2024/01/01 03:33:06;;;;;;;8.52;3.88;;;7.30;99.90;;;;;;4830220;29;20764;-78
2024/01/01 03:35:32;;;;;;;9.50;3.28;;;7.00;99.90;;;;;;4827509;29;20047;-78
2024/01/01 03:38:01;;;;;;;6.28;3.40;;;6.90;99.90;;;;;;4834307;29;20050;-78
2024/01/01 03:40:27;;;;;;;8.77;3.22;;;6.90;99.90;;;;;;4829449;29;20559;-79
2024/01/01 03:42:53;;;;;;;9.27;2.97;;;6.90;99.90;;;;;;4832322;29;20133;-80
2024/01/01 03:45:19;;;;;;;6.90;3.67;;;6.90;99.90;;;;;;4829310;29;20185;-78
2024/01/01 03:47:45;;;;;;;9.25;3.47;;;6.90;99.90;;;;;;4826847;29;20148;-78
2024/01/01 03:50:10;;;;;;;10.07;3.33;;;6.80;99.90;;;;;;4835088;29;20366;-79
2024/01/01 03:52:36;;;;;;;5.85;2.78;;;6.80;99.90;;;;;;4831995;29;20057;-79
2024/01/01 03:55:03;;;;;;;8.23;3.35;;;7.10;99.90;;;;;;4832675;29;20118;-78
2024/01/01 03:57:31;;;;;;;8.90;5.32;;;6.80;99.90;;;;;;4835873;29;20416;-80
2024/01/01 03:59:57;;;;;;;7.57;3.40;;;6.80;99.90;;;;;;4837856;29;20054;-79
2024/01/01 04:02:22;;;;;;;7.25;2.85;;;6.80;99.90;;;;;;4835986;29;20143;-78
2024/01/01 04:04:50;;;;;;;6.97;2.25;;;6.80;99.90;;;;;;4831196;29;20447;-78
2024/01/01 04:07:16;;;;;;;6.22;2.45;;;6.80;99.90;;;;;;4836441;29;20050;-79
2024/01/01 04:09:42;;;;;;;6.70;2.88;;;6.80;99.90;;;;;;4836109;29;20183;-79
2024/01/01 04:12:08;;;;;;;4.32;2.63;;;6.80;99.90;;;;;;4833185;29;20136;-79
2024/01/01 04:14:33;;;;;;;5.53;2.42;;;6.80;99.90;;;;;;4838043;29;20840;-78
2024/01/01 04:16:59;;;;;;;6.32;2.58;;;6.80;99.90;;;;;;4834032;29;20054;-78
2024/01/01 04:19:25;;;;;;;7.00;2.90;;;6.80;99.90;;;;;;4835449;29;20053;-79
2024/01/01 04:21:50;;;;;;;5.25;3.20;;;6.80;99.90;;;;;;4836942;29;20106;-80
2024/01/01 04:24:16;;;;;;;9.13;2.45;;;6.70;99.90;;;;;;4851292;29;20057;-79
2024/01/01 04:26:41;;;;;;;6.60;4.05;;;6.80;99.90;;;;;;4822538;29;20042;-79
2024/01/01 04:29:07;;;;;;;7.53;3.38;;;7.30;99.90;;;;;;4828237;29;20055;-79
2024/01/01 04:31:32;;;;;;;6.70;2.70;;;6.80;99.90;;;;;;4827791;29;20057;-79
2024/01/01 04:33:58;;;;;;;9.40;2.67;;;6.80;99.90;;;;;;4829641;29;20088;-79
2024/01/01 04:36:24;;;;;;;8.88;3.30;;;6.70;99.90;;;;;;4829678;29;20142;-79
2024/01/01 04:38:49;;;;;;;6.00;2.70;;;6.70;99.90;;;;;;4826161;29;20062;-79
2024/01/01 04:41:15;;;;;;;7.05;2.80;;;6.70;99.90;;;;;;4833125;29;20046;-79
2024/01/01 04:43:40;;;;;;;9.23;3.45;;;6.60;99.90;;;;;;4820660;29;20043;-79
2024/01/01 04:46:07;;;;;;;7.97;2.92;;;6.60;99.90;;;;;;4827023;29;20049;-79
2024/01/01 04:48:34;;;;;;;7.15;2.92;;;6.60;99.90;;;;;;4833520;29;20073;-80
2024/01/01 04:51:00;;;;;;;8.77;3.00;;;6.60;99.90;;;;;;4831308;29;20090;-79
2024/01/01 04:53:26;;;;;;;6.65;2.80;;;6.60;99.90;;;;;;4836403;29;20049;-78
2024/01/01 04:55:52;;;;;;;10.10;2.97;;;6.60;99.90;;;;;;4834360;29;20164;-79
2024/01/01 04:58:17;;;;;;;8.75;2.80;;;6.50;99.90;;;;;;4834425;29;20050;-79
2024/01/01 05:00:43;;;;;;;8.70;2.85;;;6.50;99.90;;;;;;4827545;29;20058;-81
2024/01/01 05:03:09;;;;;;;10.77;2.97;;;6.90;99.90;;;;;;4839023;29;20645;-79
2024/01/01 05:05:34;;;;;;;8.57;2.72;;;6.60;99.90;;;;;;4834435;29;20050;-79
2024/01/01 05:08:00;;;;;;;11.88;2.83;;;6.50;99.90;;;;;;4835074;29;20045;-80
2024/01/01 05:10:26;;;;;;;9.75;2.80;;;6.60;99.90;;;;;;4835543;29;20046;-80
2024/01/01 05:12:52;;;;;;;12.43;2.97;;;6.60;99.90;;;;;;4833866;29;20514;-79
2024/01/01 05:15:18;;;;;;;10.30;2.90;;;6.60;99.90;;;;;;4831737;29;20082;-80
2024/01/01 05:17:43;;;;;;;9.80;3.10;;;6.60;99.90;;;;;;4829501;29;20808;-80
2024/01/01 05:20:09;;;;;;;9.52;2.70;;;6.60;99.90;;;;;;4825797;29;20114;-80
2024/01/01 05:22:35;;;;;;;10.15;3.42;;;6.60;99.90;;;;;;4828117;29;20053;-79
2024/01/01 05:25:01;;;;;;;9.63;3.97;;;6.60;99.90;;;;;;4826876;29;20055;-80
2024/01/01 05:27:26;;;;;;;11.90;4.18;;;6.70;99.90;;;;;;4832943;29;20114;-80
2024/01/01 05:29:52;;;;;;;11.65;2.92;;;6.70;99.90;;;;;;4828922;29;20417;-80
2024/01/01 05:32:19;;;;;;;9.23;3.40;;;6.80;99.90;;;;;;4827464;29;20049;-81
2024/01/01 05:34:44;;;;;;;11.75;3.22;;;6.70;99.90;;;;;;4829833;29;20509;-79
2024/01/01 05:37:10;;;;;;;11.45;3.25;;;6.70;99.90;;;;;;4825673;29;20046;-80
2024/01/01 05:39:35;;;;;;;11.80;3.15;;;6.70;99.90;;;;;;4836308;29;20037;-79
2024/01/01 05:42:01;;;;;;;10.43;2.97;;;6.70;99.90;;;;;;4834296;29;20049;-80
2024/01/01 05:44:27;;;;;;;10.10;2.95;;;7.00;99.90;;;;;;4836577;29;20065;-80
2024/01/01 05:46:53;;;;;;;11.07;2.90;;;6.80;99.90;;;;;;4829004;29;20061;-80
2024/01/01 05:49:19;;;;;;;8.95;2.80;;;6.80;99.90;;;;;;4828910;29;20062;-80
2024/01/01 05:51:45;;;;;;;9.52;2.95;;;6.80;99.90;;;;;;4828659;29;20046;-80
2024/01/01 05:54:11;;;;;;;9.27;2.67;;;6.80;99.90;;;;;;4835990;29;20128;-79
2024/01/01 05:56:37;;;;;;;9.68;2.60;;;6.80;99.90;;;;;;4850664;29;20088;-80
2024/01/01 05:59:03;;;;;;;9.35;2.85;;;6.80;99.90;;;;;;4828960;29;20058;-81
2024/01/01 06:01:28;;;;;;;13.40;2.65;;;6.80;99.90;;;;;;4834048;29;20045;-79
2024/01/01 06:03:54;;;;;;;7.55;2.40;;;6.80;99.90;;;;;;4832009;29;20052;-79
2024/01/01 06:06:19;;;;;;;7.47;3.00;;;6.80;99.90;;;;;;4835866;29;20458;-79
2024/01/01 06:08:45;;;;;;;6.90;2.72;;;6.80;99.90;;;;;;4831620;29;20151;-80
2024/01/01 06:11:11;;;;;;;7.97;3.17;;;6.80;99.90;;;;;;4828171;29;20390;-80
2024/01/01 06:13:37;;;;;;;10.80;3.22;;;6.80;99.90;;;;;;4827805;29;20150;-81
2024/01/01 06:16:03;;;;;;;9.25;2.97;;;6.80;99.90;;;;;;4828584;29;20681;-80
2024/01/01 06:18:29;;;;;;;9.82;3.13;;;6.80;99.90;;;;;;4851278;29;20375;-80
2024/01/01 06:20:54;;;;;;;11.80;3.03;;;6.80;99.90;;;;;;4833196;29;20433;-79
2024/01/01 06:23:20;;;;;;;9.13;2.72;;;6.80;99.90;;;;;;4827413;29;20133;-80
2024/01/01 06:25:45;;;;;;;10.75;3.28;;;6.80;99.90;;;;;;4828483;29;20175;-79
2024/01/01 06:28:11;;;;;;;9.90;3.42;;;6.80;99.90;;;;;;4828884;29;20057;-79
2024/01/01 06:30:37;;;;;;;14.80;3.58;;;6.80;99.90;;;;;;4834196;29;20070;-79
2024/01/01 06:33:04;;;;;;;9.18;3.08;;;6.80;99.90;;;;;;4833714;29;20077;-79
2024/01/01 06:35:30;;;;;;;6.82;3.10;;;6.80;99.90;;;;;;4831377;29;20065;-79
2024/01/01 06:37:59;;;;;;;12.75;3.20;;;6.80;99.90;;;;;;4848753;29;20054;-79
2024/01/01 06:40:25;;;;;;;7.22;2.60;;;6.80;99.90;;;;;;4836070;29;20056;-79
2024/01/01 06:42:50;;;;;;;7.97;3.65;;;6.80;99.90;;;;;;4833848;29;20175;-79
2024/01/01 06:45:17;;;;;;;5.75;2.75;;;6.80;99.90;;;;;;4827588;29;20554;-79
2024/01/01 06:47:43;;;;;;;8.00;3.00;;;6.90;99.90;;;;;;4826274;29;20171;-79
2024/01/01 06:50:08;;;;;;;9.77;2.83;;;6.90;99.90;;;;;;4836859;29;20050;-79
2024/01/01 06:52:34;;;;;;;8.48;3.20;;;6.90;99.90;;;;;;4830877;29;20103;-79
2024/01/01 06:55:00;;;;;;;9.23;3.08;;;6.90;99.90;;;;;;4837549;29;20121;-79
2024/01/01 06:57:25;;;;;;;7.72;3.08;;;6.90;99.90;;;;;;4835980;29;20053;-80
2024/01/01 06:59:51;;;;;;;8.27;3.30;;;6.90;99.90;;;;;;4827632;29;20086;-79
2024/01/01 07:02:17;;;;;;;6.78;2.78;;;6.90;99.90;;;;;;4835656;29;20113;-79
2024/01/01 07:04:42;;;;;;;7.50;3.03;;;6.90;99.90;;;;;;4833813;29;20115;-79
2024/01/01 07:07:08;;;;;;;8.73;3.42;;;6.90;99.90;;;;;;4825891;29;20161;-79
2024/01/01 07:09:34;;;;;;;7.53;3.13;;;6.90;99.90;;;;;;4837162;29;20065;-80
2024/01/01 07:12:18;;;;;;;8.48;2.80;;;6.80;99.90;;;;;;4833805;29;20138;-79
2024/01/01 07:14:43;;;;;;;7.30;2.70;;;6.80;99.90;;;;;;4832560;29;20054;-80
2024/01/01 07:17:09;;;;;;;14.13;3.25;;;6.80;99.90;;;;;;4837990;29;20046;-79
2024/01/01 07:19:35;;;;;;;6.82;3.35;;;6.80;99.90;;;;;;4830216;29;20540;-79
2024/01/01 07:22:01;;;;;;;5.45;2.45;;;6.80;99.90;;;;;;4843127;29;20082;-79
2024/01/01 07:24:27;;;;;;;12.15;4.70;;;7.00;99.90;;;;;;4830641;29;20079;-80
2024/01/01 07:26:53;;;;;;;8.15;4.47;;;6.70;99.90;;;;;;4836517;29;20086;-78
2024/01/01 07:29:18;;;;;;;8.35;4.00;;;6.70;99.90;;;;;;4834269;29;20416;-79
2024/01/01 07:31:44;;;;;;;9.82;4.43;;;6.70;99.90;;;;;;4844650;29;20057;-81
2024/01/01 07:34:09;;;;;;;5.45;3.70;;;6.80;99.90;;;;;;4827791;29;20421;-80
2024/01/01 07:36:35;;;;;;;8.20;2.90;;;6.80;99.90;;;;;;4839120;29;20186;-81
2024/01/01 07:39:00;;;;;;;7.13;3.00;;;6.80;99.90;;;;;;4837855;29;20057;-80
2024/01/01 07:41:26;;;;;;;9.75;3.28;;;6.80;99.90;;;;;;4836244;29;20061;-80
2024/01/01 07:43:52;;;;;;;8.65;2.88;;;7.10;99.90;;;;;;4836036;29;20122;-79
2024/01/01 07:46:17;;;;;;;7.15;3.08;;;6.80;99.90;;;;;;4840968;29;20244;-81
2024/01/01 07:48:43;;;;;;;8.85;3.17;;;6.80;99.90;;;;;;4839130;29;20050;-80
2024/01/01 07:51:09;;;;;;;10.02;3.42;;;6.80;99.90;;;;;;4836245;29;20102;-80
2024/01/01 07:53:34;;;;;;;10.73;3.35;;;6.80;99.90;;;;;;4838180;29;20045;-78
2024/01/01 07:56:01;;;;;;;9.82;3.90;;;7.60;99.90;;;;;;4838335;29;20041;-79
2024/01/01 07:58:27;;;;;;;6.28;3.20;;;6.80;99.90;;;;;;4839040;29;20094;-79
2024/01/01 08:00:55;;;;;;;9.70;3.78;;;6.90;99.90;;;;;;4839437;29;20058;-78
2024/01/01 08:03:21;;;;;;;11.82;3.95;;;6.90;99.90;;;;;;4831611;29;20050;-79
2024/01/01 08:05:46;;;;;;;9.40;3.75;;;6.90;99.90;;;;;;4839524;29;20088;-79
2024/01/01 08:08:12;;;;;;;8.77;3.55;;;6.90;99.90;;;;;;4830525;29;20136;-78
2024/01/01 08:10:38;;;;;;;7.47;3.35;;;6.90;99.90;;;;;;4839396;29;20054;-79
2024/01/01 08:13:04;;;;;;;9.30;3.53;;;6.90;99.90;;;;;;4838164;29;20046;-78
2024/01/01 08:15:29;;;;;;;10.05;3.70;;;7.00;99.90;;;;;;4839451;29;20050;-78
2024/01/01 08:17:55;;;;;;;7.50;3.38;;;7.00;99.90;;;;;;4831243;29;20065;-79
2024/01/01 08:20:20;;;;;;;11.95;3.65;;;7.00;99.90;;;;;;4820886;29;20054;-81
2024/01/01 08:22:47;;;;;;;11.00;3.53;;;7.00;99.90;;;;;;4822848;29;20486;-78
2024/01/01 08:25:12;;;;;;;12.00;3.90;;;7.00;99.90;;;;;;4833211;29;20046;-77
2024/01/01 08:27:38;;;;;;;10.13;3.47;;;7.00;99.90;;;;;;4838685;29;20052;-79
2024/01/01 08:30:06;;;;;;;8.10;3.10;;;7.10;99.90;;;;;;4837736;29;20057;-79
2024/01/01 08:32:33;;;;;;;10.10;3.67;;;7.10;99.90;;;;;;4838651;29;20445;-79
2024/01/01 08:34:58;;;;;;;7.80;3.60;;;7.10;99.90;;;;;;4838584;29;20046;-78
2024/01/01 08:37:24;;;;;;;8.63;3.55;;;7.10;99.90;;;;;;4837869;29;20060;-79
2024/01/01 08:39:49;;;;;;;9.32;3.95;;;7.10;99.90;;;;;;4837847;29;20046;-78
2024/01/01 08:42:15;;;;;;;7.68;3.50;;;7.10;99.90;;;;;;4850720;29;20058;-79
2024/01/01 08:44:41;;;;;;;7.30;3.72;;;7.00;99.90;;;;;;4836330;29;20042;-78
2024/01/01 08:47:06;;;;;;;10.10;4.05;;;7.00;99.90;;;;;;4837954;29;20084;-78
2024/01/01 08:49:32;;;;;;;13.73;6.95;;;7.00;99.90;;;;;;4839193;29;20045;-80
2024/01/01 08:51:57;;;;;;;10.32;4.45;;;7.00;99.90;;;;;;4832905;29;20553;-79
2024/01/01 08:54:24;;;;;;;9.55;4.30;;;7.00;99.90;;;;;;4834694;29;20532;-79
2024/01/01 08:56:49;;;;;;;10.50;4.10;;;7.10;99.90;;;;;;4838453;29;20106;-80
2024/01/01 08:59:18;;;;;;;8.10;3.55;;;7.10;99.90;;;;;;4838471;29;20084;-79
2024/01/01 09:01:47;;;;;;;9.90;3.03;;;7.10;99.90;;;;;;4821892;29;20057;-79
2024/01/01 09:04:13;;;;;;;11.27;4.38;;;7.10;99.90;;;;;;4824535;29;20129;-79
2024/01/01 09:06:40;;;;;;;8.50;2.90;;;7.10;99.90;;;;;;4820221;29;20129;-79
2024/01/01 09:09:08;;;;;;;11.40;3.17;;;7.10;99.90;;;;;;4819659;29;20106;-80
2024/01/01 09:11:33;;;;;;;8.25;3.22;;;7.10;99.90;;;;;;4837181;29;20089;-80
2024/01/01 09:14:00;;;;;;;7.82;3.70;;;7.10;99.90;;;;;;4836353;29;20081;-80
2024/01/01 09:16:29;;;;;;;9.40;2.90;;;7.10;99.90;;;;;;4836699;29;20112;-80
2024/01/01 09:18:55;;;;;;;7.80;2.78;;;7.00;99.90;;;;;;4838237;29;20520;-79
2024/01/01 09:21:22;;;;;;;9.70;2.88;;;7.00;99.90;;;;;;4823131;29;20119;-79
2024/01/01 09:23:47;;;;;;;9.05;2.97;;;7.00;99.90;;;;;;4819024;29;20784;-80
2024/01/01 09:26:14;;;;;;;11.98;5.63;;;7.00;99.90;;;;;;4819975;29;20106;-80
2024/01/01 09:28:40;;;;;;;14.55;6.88;;;7.10;99.90;;;;;;4819943;29;20059;-80
2024/01/01 09:31:05;;;;;;;16.02;7.05;;;7.10;99.90;;;;;;4819470;29;20050;-78
2024/01/01 09:33:31;;;;;;;9.50;4.25;;;7.20;99.90;;;;;;4818649;29;20157;-81
2024/01/01 09:35:56;;;;;;;10.35;3.13;;;7.20;99.90;;;;;;4820190;29;20069;-81
2024/01/01 09:38:22;;;;;;;10.02;3.20;;;7.20;99.90;;;;;;4826656;29;20154;-84
2024/01/01 09:40:48;;;;;;;11.55;3.30;;;7.30;99.90;;;;;;4837344;29;20072;-81
2024/01/01 09:43:17;;;;;;;10.07;3.15;;;7.30;99.90;;;;;;4837946;29;20046;-82
2024/01/01 09:45:46;;;;;;;10.55;3.40;;;7.40;99.90;;;;;;4810701;29;20054;-80
2024/01/01 09:48:11;;;;;;;10.65;3.10;;;7.40;99.90;;;;;;4838036;29;20045;-80
2024/01/01 09:50:37;;;;;;;10.15;2.72;;;7.30;99.90;;;;;;4836073;29;20058;-81
2024/01/01 09:53:03;;;;;;;6.97;2.78;;;7.40;99.90;;;;;;4850816;29;20045;-81
2024/01/01 09:55:30;;;;;;;11.55;3.00;;;7.40;99.90;;;;;;4837221;29;20049;-81
2024/01/01 09:57:55;;;;;;;9.68;2.90;;;7.40;99.90;;;;;;4838161;29;20065;-81
2024/01/01 10:00:25;;;;;;;8.90;3.08;;;7.40;99.90;;;;;;4835853;29;20042;-80
2024/01/01 10:02:52;;;;;;;9.73;2.30;;;7.40;99.90;;;;;;4837170;29;20062;-81
2024/01/01 10:05:17;;;;;;;7.07;2.42;;;7.50;99.90;;;;;;4835975;29;20041;-81
2024/01/01 10:07:47;;;;;;;5.30;2.00;;;7.50;99.90;;;;;;4836805;29;20420;-81
2024/01/01 10:10:26;;;;;;;7.10;2.50;;;8.00;99.90;;;;;;4836177;29;20121;-80
2024/01/01 10:12:52;;;;;;;12.85;2.70;;;7.60;99.90;;;;;;4836158;29;20513;-81
2024/01/01 10:15:17;;;;;;;8.35;2.58;;;7.60;99.90;;;;;;4834581;29;20133;-80
2024/01/01 10:17:43;;;;;;;8.23;2.17;;;7.60;99.90;;;;;;4836797;29;20042;-80
2024/01/01 10:20:09;;;;;;;9.65;2.45;;;7.60;99.90;;;;;;4821623;29;20374;-82
2024/01/01 10:22:35;;;;;;;8.25;2.45;;;7.60;99.90;;;;;;4818935;29;20048;-82
2024/01/01 10:25:11;;;;;;;6.55;2.17;;;7.60;99.90;;;;;;4821139;29;20053;-78
2024/01/01 10:27:43;;;;;;;9.27;2.33;;;7.50;99.90;;;;;;4821769;29;20521;-80
2024/01/01 10:30:09;;;;;;;8.70;2.30;;;7.50;99.90;;;;;;4822134;29;20086;-80
2024/01/01 10:32:35;;;;;;;7.18;1.70;;;7.50;99.90;;;;;;4823649;29;20313;-80
2024/01/01 10:35:05;;;;;;;12.05;2.60;;;7.50;99.90;;;;;;4834881;29;20053;-79
2024/01/01 10:37:32;;;;;;;8.05;2.00;;;7.50;99.90;;;;;;4839864;29;20100;-82
2024/01/01 10:40:05;;;;;;;5.35;2.05;;;7.50;99.90;;;;;;4839671;29;20385;-78
2024/01/01 10:42:33;;;;;;;9.98;2.28;;;7.60;99.90;;;;;;4840440;29;20057;-81
2024/01/01 10:45:05;;;;;;;7.88;2.28;;;7.60;99.90;;;;;;4838284;29;20046;-81
2024/01/01 10:47:31;;;;;;;6.10;2.38;;;7.60;99.90;;;;;;4833103;29;20045;-81
2024/01/01 10:50:19;;;;;;;7.68;2.10;;;7.70;99.90;;;;;;4854288;29;20045;-81
2024/01/01 10:53:25;;;;;;;8.73;3.03;;;7.70;99.90;;;;;;4822351;29;20046;-82
2024/01/01 10:56:21;;;;;;;9.15;2.28;;;7.80;99.90;;;;;;4811933;29;20158;-81
2024/01/01 10:59:06;;;;;;;8.23;2.00;;;7.90;99.90;;;;;;4837098;29;20063;-80
2024/01/01 11:01:36;;;;;;;4.82;1.98;;;7.90;99.90;;;;;;4837983;29;20054;-80
2024/01/01 11:04:01;;;;;;;6.47;1.70;;;7.80;99.90;;;;;;4843748;29;20046;-83
2024/01/01 11:06:32;;;;;;;4.97;1.65;;;7.80;99.90;;;;;;4845855;29;20054;-80
2024/01/01 11:09:20;;;;;;;6.35;1.83;;;7.80;99.90;;;;;;4843507;29;20050;-79
2024/01/01 11:11:50;;;;;;;7.82;1.67;;;7.80;99.90;;;;;;4822870;29;20106;-80
2024/01/01 11:14:34;;;;;;;7.80;1.85;;;7.80;99.90;;;;;;4831512;29;20060;-79
2024/01/01 11:17:06;;;;;;;8.18;1.83;;;7.80;99.90;;;;;;4839817;29;20054;-78
2024/01/01 11:19:36;;;;;;;9.68;2.00;;;7.70;99.90;;;;;;4838855;29;20080;-81
2024/01/01 11:22:20;;;;;;;5.93;1.58;;;7.70;99.90;;;;;;4839085;29;20058;-80
2024/01/01 11:24:47;;;;;;;6.63;1.90;;;7.70;99.90;;;;;;4838399;29;20175;-81
2024/01/01 11:27:29;;;;;;;5.88;1.60;;;7.70;99.90;;;;;;4838930;29;20106;-81
2024/01/01 11:30:01;;;;;;;4.23;1.63;;;7.70;99.90;;;;;;4840054;29;20042;-81
2024/01/01 11:32:27;;;;;;;3.90;1.55;;;7.80;99.90;;;;;;4838190;29;20469;-81
2024/01/01 11:35:09;;;;;;;6.90;1.70;;;7.80;99.90;;;;;;4836187;29;20061;-80
2024/01/01 11:37:36;;;;;;;5.68;1.48;;;7.70;99.90;;;;;;4839975;29;20173;-80
2024/01/01 11:40:04;;;;;;;5.53;1.63;;;7.70;99.90;;;;;;4834884;29;20046;-80
2024/01/01 11:42:30;;;;;;;5.63;2.10;;;7.60;99.90;;;;;;4835764;29;20450;-79
2024/01/01 11:45:16;;;;;;;5.80;1.60;;;7.70;99.90;;;;;;4838875;29;20049;-81
2024/01/01 11:47:43;;;;;;;6.18;1.92;;;7.80;99.90;;;;;;4838110;29;20058;-80
2024/01/01 11:50:10;;;;;;;9.13;1.40;;;7.90;99.90;;;;;;4839048;29;20054;-80
2024/01/01 11:52:36;;;;;;;6.82;2.30;;;8.00;99.90;;;;;;4838742;29;20070;-80
2024/01/01 11:55:02;;;;;;;6.30;1.95;;;8.00;99.90;;;;;;4837816;29;20125;-80
2024/01/01 11:57:27;;;;;;;7.93;1.80;;;8.10;99.90;;;;;;4821227;29;20486;-80
2024/01/01 11:59:54;;;;;;;7.72;2.20;;;8.10;99.90;;;;;;4832745;29;20133;-80
2024/01/01 12:02:21;;;;;;;11.10;4.25;;;8.20;99.90;;;;;;4843335;29;20394;-80
2024/01/01 12:04:50;;;;;;;11.85;2.30;;;8.20;99.90;;;;;;4838402;29;20500;-81
2024/01/01 12:07:32;;;;;;;7.07;2.97;;;8.30;99.90;;;;;;4839362;29;20112;-79
2024/01/01 12:10:11;;;;;;;6.10;2.88;;;8.30;99.90;;;;;;4839202;29;20050;-77
2024/01/01 12:12:38;;;;;;;8.80;1.95;;;8.30;99.90;;;;;;4839489;29;20081;-79
2024/01/01 12:15:12;;;;;;;8.77;2.20;;;8.20;99.90;;;;;;4837521;29;20509;-81
2024/01/01 12:17:42;;;;;;;7.75;2.40;;;8.20;99.90;;;;;;4839517;29;20508;-79
2024/01/01 12:20:12;;;;;;;7.47;1.85;;;8.20;99.90;;;;;;4839440;29;20084;-80
2024/01/01 12:22:38;;;;;;;6.05;1.85;;;8.20;99.90;;;;;;4837123;29;20045;-79
2024/01/01 12:25:05;;;;;;;4.75;1.63;;;8.20;99.90;;;;;;4838427;29;20568;-80
2024/01/01 12:27:30;;;;;;;8.85;2.00;;;8.20;99.90;;;;;;4839519;29;20044;-79
2024/01/01 12:29:57;;;;;;;5.53;1.88;;;8.90;99.90;;;;;;4852762;29;20393;-79
2024/01/01 12:32:23;;;;;;;9.00;1.95;;;8.20;99.90;;;;;;4837335;29;20104;-81
2024/01/01 12:34:51;;;;;;;3.88;1.48;;;8.30;99.90;;;;;;4837851;29;20062;-82
2024/01/01 12:37:17;;;;;;;9.40;2.40;;;8.40;99.90;;;;;;4838818;29;20406;-81
2024/01/01 12:39:43;;;;;;;6.10;1.85;;;8.40;99.90;;;;;;4851979;29;20062;-81
2024/01/01 12:42:09;;;;;;;11.65;2.00;;;8.50;99.90;;;;;;4838963;29;20050;-80
2024/01/01 12:44:36;;;;;;;7.45;2.00;;;8.50;99.90;;;;;;4838299;29;20058;-81
2024/01/01 12:47:01;;;;;;;7.57;2.00;;;8.60;99.90;;;;;;4837023;29;20053;-80
2024/01/01 12:49:37;;;;;;;5.38;1.48;;;8.50;99.90;;;;;;4833650;29;20050;-81